Albuquerque, NM (87101)

9:11 PM MDT on September 17, 2014 (GMT -0600)
UNM Area West | Change Station
CLOSE
Current Station
Personal Weather Station
Location: Albuquerque, NM
Elevation: 5133 ft
Nearby Weather Stations

Elev 5133 ft 35.09 °N, 106.63 °W | Updated 10 minutes ago

Overcast
Overcast
65.7 °F
Feels Like 65.7 °F
N
0.0
Wind Variable Wind from SW
Gusts 0.0 mph

Today
High -- | Low -- °F
--% Chance of Precip.
Yesterday
High -- | Low -- °F
Precip. -- in
6:50 AM 7:10 PM
Waning Crescent, 31% visible
Pressure 29.93 in
Visibility 10.0 miles
Clouds Few 3000 ft
Mostly Cloudy 13000 ft
Mostly Cloudy 17000 ft
Overcast 22000 ft
Dew Point 59 °F
Humidity 79%
Rainfall 0.14 in
Snow Depth 0 in , 1 in , 1 in
UV 0 out of 12
Pollen 5.30 out of 12
Air Quality Not available.
Flu Activity Not available.
METAR KABQ 180252Z 00000KT 10SM FEW030 BKN130 BKN170 OVC220 19/14 A3012 RMK AO2 SLP135 MTNS OBSC SE T01940144 53012

More Conditions Fewer Conditions

Pressure 29.93 in
Visibility 10.0 miles
Clouds Few 3000 ft
Mostly Cloudy 13000 ft
Mostly Cloudy 17000 ft
Overcast 22000 ft
Dew Point 59 °F
Humidity 79%
Rainfall 0.14 in
Snow Depth 0 in , 1 in , 1 in
UV 0 out of 12
Pollen 5.30 out of 12
Air Quality Not available.
Flu Activity Not available.
METAR KABQ 180252Z 00000KT 10SM FEW030 BKN130 BKN170 OVC220 19/14 A3012 RMK AO2 SLP135 MTNS OBSC SE T01940144 53012

More Conditions Fewer Conditions

10-Day Weather Forecast

Almanac

Astronomy

Sep. 17, 2014 Rise Set
Actual Time 6:50 AM MDT 7:10 PM MDT
Civil Twilight 6:25 AM MDT 7:35 PM MDT
Nautical Twilight 5:55 AM MDT 8:05 PM MDT
Astronomical Twilight 5:25 AM MDT 8:35 PM MDT
Moon 1:02 AM MDT (9/17) 3:13 PM MDT (9/17)
Length of Visible Light 13h 10m
Length of Day
12h 19m
Tomorrow will be 2m 11s shorter.
Waning Crescent, 31% of the Moon is Illuminated
Today
Waning Crescent
Sep 24
New
Oct 1
First Quarter
Oct 8
Full
Oct 15
Last Quarter

Today's Extremes

State Highs State Lows

Community

WunderPhotos

Upload Photos

1,754,282 photos uploaded!

Nearby

Snow Depth

Station Depth Elevation
Frisco Divide 0 in 8000 ft
North Costilla 1 in 10600 ft
Sierra Blanca 1 in 10280 ft
Silver Creek Divide 1 in 9000 ft
Signal Peak 1 in 8360 ft

Earthquake Activity

City Distance Mag. Time & Date
No recent earthquake activity has been reported nearby.
Minimum magnitude displayed is 2.5.

Coastal Water Temperatures

Place Temperature
No Stations Reporting

Nearby Weather Stations